sensor_id;sensor_type;location;lat;lon;timestamp;temperature;humidity
19039;DHT22;9652;49.014;12.052;2023-02-01T00:01:23;8.30;66.20
19039;DHT22;9652;49.014;12.052;2023-02-01T00:03:50;8.30;66.10
19039;DHT22;9652;49.014;12.052;2023-02-01T00:06:17;8.30;66.10
19039;DHT22;9652;49.014;12.052;2023-02-01T00:08:44;8.30;65.90
19039;DHT22;9652;49.014;12.052;2023-02-01T00:11:11;8.30;66.00
19039;DHT22;9652;49.014;12.052;2023-02-01T00:13:41;8.30;66.10
19039;DHT22;9652;49.014;12.052;2023-02-01T00:16:11;8.30;66.20
19039;DHT22;9652;49.014;12.052;2023-02-01T00:18:41;8.30;66.20
19039;DHT22;9652;49.014;12.052;2023-02-01T00:21:10;8.20;66.10
19039;DHT22;9652;49.014;12.052;2023-02-01T00:23:37;8.20;66.20
19039;DHT22;9652;49.014;12.052;2023-02-01T00:26:06;8.20;66.20
19039;DHT22;9652;49.014;12.052;2023-02-01T00:28:40;8.20;66.20
19039;DHT22;9652;49.014;12.052;2023-02-01T00:31:07;8.20;66.20
19039;DHT22;9652;49.014;12.052;2023-02-01T00:33:36;8.20;66.40
19039;DHT22;9652;49.014;12.052;2023-02-01T00:36:05;8.20;66.40
19039;DHT22;9652;49.014;12.052;2023-02-01T00:38:37;8.20;66.50
19039;DHT22;9652;49.014;12.052;2023-02-01T00:41:06;8.20;66.50
19039;DHT22;9652;49.014;12.052;2023-02-01T00:43:36;8.20;66.40
19039;DHT22;9652;49.014;12.052;2023-02-01T00:46:03;8.20;66.40
19039;DHT22;9652;49.014;12.052;2023-02-01T00:48:30;8.20;66.40
19039;DHT22;9652;49.014;12.052;2023-02-01T00:51:01;8.10;66.20
19039;DHT22;9652;49.014;12.052;2023-02-01T00:53:29;8.10;66.20
19039;DHT22;9652;49.014;12.052;2023-02-01T00:55:56;8.10;66.20
19039;DHT22;9652;49.014;12.052;2023-02-01T00:58:24;8.10;66.20
19039;DHT22;9652;49.014;12.052;2023-02-01T01:01:01;8.10;66.20
19039;DHT22;9652;49.014;12.052;2023-02-01T01:03:29;8.10;66.50
19039;DHT22;9652;49.014;12.052;2023-02-01T01:06:02;8.20;66.40
19039;DHT22;9652;49.014;12.052;2023-02-01T01:08:30;8.20;66.50
19039;DHT22;9652;49.014;12.052;2023-02-01T01:10:58;8.10;67.20
19039;DHT22;9652;49.014;12.052;2023-02-01T01:13:25;8.10;66.40
19039;DHT22;9652;49.014;12.052;2023-02-01T01:15:52;8.10;66.40
19039;DHT22;9652;49.014;12.052;2023-02-01T01:18:19;8.20;66.40
19039;DHT22;9652;49.014;12.052;2023-02-01T01:20:47;8.20;66.40
19039;DHT22;9652;49.014;12.052;2023-02-01T01:23:16;8.20;66.50
19039;DHT22;9652;49.014;12.052;2023-02-01T01:25:43;8.20;66.50
19039;DHT22;9652;49.014;12.052;2023-02-01T01:28:10;8.10;66.50
19039;DHT22;9652;49.014;12.052;2023-02-01T01:30:37;8.20;66.60
19039;DHT22;9652;49.014;12.052;2023-02-01T01:33:04;8.20;66.60
19039;DHT22;9652;49.014;12.052;2023-02-01T01:35:32;8.20;66.60
19039;DHT22;9652;49.014;12.052;2023-02-01T01:38:00;8.20;66.70
19039;DHT22;9652;49.014;12.052;2023-02-01T01:40:30;8.20;66.70
19039;DHT22;9652;49.014;12.052;2023-02-01T01:42:58;8.20;66.70
19039;DHT22;9652;49.014;12.052;2023-02-01T01:45:27;8.20;66.70
19039;DHT22;9652;49.014;12.052;2023-02-01T01:47:57;8.20;66.70
19039;DHT22;9652;49.014;12.052;2023-02-01T01:50:29;8.20;66.70
19039;DHT22;9652;49.014;12.052;2023-02-01T01:53:01;8.20;66.70
19039;DHT22;9652;49.014;12.052;2023-02-01T01:55:36;8.20;66.80
19039;DHT22;9652;49.014;12.052;2023-02-01T01:58:10;8.20;66.90
19039;DHT22;9652;49.014;12.052;2023-02-01T02:00:41;8.20;66.90
19039;DHT22;9652;49.014;12.052;2023-02-01T02:03:13;8.20;66.80
19039;DHT22;9652;49.014;12.052;2023-02-01T02:05:43;8.20;66.80
19039;DHT22;9652;49.014;12.052;2023-02-01T02:08:12;8.30;66.90
19039;DHT22;9652;49.014;12.052;2023-02-01T02:10:40;8.30;66.90
19039;DHT22;9652;49.014;12.052;2023-02-01T02:13:21;8.30;66.90
19039;DHT22;9652;49.014;12.052;2023-02-01T02:15:56;8.30;66.90
19039;DHT22;9652;49.014;12.052;2023-02-01T02:18:37;8.30;66.90
19039;DHT22;9652;49.014;12.052;2023-02-01T02:21:14;8.30;66.90
19039;DHT22;9652;49.014;12.052;2023-02-01T02:24:17;8.40;66.90
19039;DHT22;9652;49.014;12.052;2023-02-01T02:27:21;8.40;66.90
19039;DHT22;9652;49.014;12.052;2023-02-01T02:30:19;8.40;66.70
19039;DHT22;9652;49.014;12.052;2023-02-01T02:33:21;8.40;66.90
19039;DHT22;9652;49.014;12.052;2023-02-01T02:36:19;8.50;66.90
19039;DHT22;9652;49.014;12.052;2023-02-01T02:39:01;8.40;66.70
19039;DHT22;9652;49.014;12.052;2023-02-01T02:41:42;8.50;66.70
19039;DHT22;9652;49.014;12.052;2023-02-01T02:44:36;8.50;66.90
19039;DHT22;9652;49.014;12.052;2023-02-01T02:47:35;8.50;66.70
19039;DHT22;9652;49.014;12.052;2023-02-01T02:50:13;8.60;66.70
19039;DHT22;9652;49.014;12.052;2023-02-01T02:53:09;8.50;66.80
19039;DHT22;9652;49.014;12.052;2023-02-01T02:55:59;8.50;67.60
19039;DHT22;9652;49.014;12.052;2023-02-01T02:58:46;8.50;66.70
19039;DHT22;9652;49.014;12.052;2023-02-01T03:01:32;8.40;66.70
19039;DHT22;9652;49.014;12.052;2023-02-01T03:04:17;8.40;66.80
19039;DHT22;9652;49.014;12.052;2023-02-01T03:06:49;8.40;66.90
19039;DHT22;9652;49.014;12.052;2023-02-01T03:09:22;8.40;67.10
19039;DHT22;9652;49.014;12.052;2023-02-01T03:11:58;8.30;67.20
19039;DHT22;9652;49.014;12.052;2023-02-01T03:14:51;8.30;67.20
19039;DHT22;9652;49.014;12.052;2023-02-01T03:17:27;8.30;67.40
19039;DHT22;9652;49.014;12.052;2023-02-01T03:20:01;8.30;67.40
19039;DHT22;9652;49.014;12.052;2023-02-01T03:22:32;8.30;67.40
19039;DHT22;9652;49.014;12.052;2023-02-01T03:25:04;8.30;67.50
19039;DHT22;9652;49.014;12.052;2023-02-01T03:27:41;8.30;67.60
19039;DHT22;9652;49.014;12.052;2023-02-01T03:30:18;8.30;67.50
19039;DHT22;9652;49.014;12.052;2023-02-01T03:32:49;8.30;67.70
19039;DHT22;9652;49.014;12.052;2023-02-01T03:35:33;8.30;67.60
19039;DHT22;9652;49.014;12.052;2023-02-01T03:38:12;8.30;67.60
19039;DHT22;9652;49.014;12.052;2023-02-01T03:40:48;8.30;67.70
19039;DHT22;9652;49.014;12.052;2023-02-01T03:43:21;8.40;67.70
19039;DHT22;9652;49.014;12.052;2023-02-01T03:45:56;8.30;67.60
19039;DHT22;9652;49.014;12.052;2023-02-01T03:48:27;8.40;67.70
19039;DHT22;9652;49.014;12.052;2023-02-01T03:51:00;8.40;67.70
19039;DHT22;9652;49.014;12.052;2023-02-01T03:53:33;8.40;67.70
19039;DHT22;9652;49.014;12.052;2023-02-01T03:56:06;8.40;67.60
19039;DHT22;9652;49.014;12.052;2023-02-01T03:58:34;8.40;67.40
19039;DHT22;9652;49.014;12.052;2023-02-01T04:01:01;8.40;67.40
19039;DHT22;9652;49.014;12.052;2023-02-01T04:03:35;8.40;67.40
19039;DHT22;9652;49.014;12.052;2023-02-01T04:06:02;8.50;67.40
19039;DHT22;9652;49.014;12.052;2023-02-01T04:08:29;8.50;67.40
19039;DHT22;9652;49.014;12.052;2023-02-01T04:10:58;8.50;67.40
19039;DHT22;9652;49.014;12.052;2023-02-01T04:13:25;8.50;67.30
19039;DHT22;9652;49.014;12.052;2023-02-01T04:15:52;8.40;67.20
19039;DHT22;9652;49.014;12.052;2023-02-01T04:18:19;8.50;67.20
19039;DHT22;9652;49.014;12.052;2023-02-01T04:20:46;8.50;67.20
19039;DHT22;9652;49.014;12.052;2023-02-01T04:23:13;8.50;67.20
19039;DHT22;9652;49.014;12.052;2023-02-01T04:25:42;8.50;67.20
19039;DHT22;9652;49.014;12.052;2023-02-01T04:28:09;8.50;67.20
19039;DHT22;9652;49.014;12.052;2023-02-01T04:30:36;8.50;67.20
19039;DHT22;9652;49.014;12.052;2023-02-01T04:33:03;8.50;67.10
19039;DHT22;9652;49.014;12.052;2023-02-01T04:35:31;8.60;67.20
19039;DHT22;9652;49.014;12.052;2023-02-01T04:37:59;8.50;67.00
19039;DHT22;9652;49.014;12.052;2023-02-01T04:40:26;8.50;66.90
19039;DHT22;9652;49.014;12.052;2023-02-01T04:42:55;8.60;66.90
19039;DHT22;9652;49.014;12.052;2023-02-01T04:45:22;8.60;66.90
19039;DHT22;9652;49.014;12.052;2023-02-01T04:47:49;8.60;66.90
19039;DHT22;9652;49.014;12.052;2023-02-01T04:50:16;8.60;66.80
19039;DHT22;9652;49.014;12.052;2023-02-01T04:52:43;8.60;66.70
19039;DHT22;9652;49.014;12.052;2023-02-01T04:55:11;8.60;66.70
19039;DHT22;9652;49.014;12.052;2023-02-01T04:57:39;8.70;66.70
19039;DHT22;9652;49.014;12.052;2023-02-01T05:00:10;8.70;66.70
19039;DHT22;9652;49.014;12.052;2023-02-01T05:02:38;8.70;66.70
19039;DHT22;9652;49.014;12.052;2023-02-01T05:05:06;8.70;66.60
19039;DHT22;9652;49.014;12.052;2023-02-01T05:07:33;8.70;66.60
19039;DHT22;9652;49.014;12.052;2023-02-01T05:10:00;8.70;66.60
19039;DHT22;9652;49.014;12.052;2023-02-01T05:12:27;8.80;66.70
19039;DHT22;9652;49.014;12.052;2023-02-01T05:15:13;8.80;66.70
19039;DHT22;9652;49.014;12.052;2023-02-01T05:17:40;8.80;66.60
19039;DHT22;9652;49.014;12.052;2023-02-01T05:20:09;8.80;66.50
19039;DHT22;9652;49.014;12.052;2023-02-01T05:22:36;8.90;66.60
19039;DHT22;9652;49.014;12.052;2023-02-01T05:25:04;8.80;66.40
19039;DHT22;9652;49.014;12.052;2023-02-01T05:27:31;8.90;66.60
19039;DHT22;9652;49.014;12.052;2023-02-01T05:29:59;8.90;66.50
19039;DHT22;9652;49.014;12.052;2023-02-01T05:32:27;8.90;66.40
19039;DHT22;9652;49.014;12.052;2023-02-01T05:34:54;8.90;66.40
19039;DHT22;9652;49.014;12.052;2023-02-01T05:37:22;8.90;66.40
19039;DHT22;9652;49.014;12.052;2023-02-01T05:39:49;8.90;66.30
19039;DHT22;9652;49.014;12.052;2023-02-01T05:42:16;8.90;66.30
19039;DHT22;9652;49.014;12.052;2023-02-01T05:44:44;9.00;66.30
19039;DHT22;9652;49.014;12.052;2023-02-01T05:47:11;9.00;66.20
19039;DHT22;9652;49.014;12.052;2023-02-01T05:49:40;9.00;66.10
19039;DHT22;9652;49.014;12.052;2023-02-01T05:52:07;9.00;66.10
19039;DHT22;9652;49.014;12.052;2023-02-01T05:54:34;9.00;66.00
19039;DHT22;9652;49.014;12.052;2023-02-01T05:57:01;9.00;66.00
19039;DHT22;9652;49.014;12.052;2023-02-01T05:59:28;9.00;65.90
19039;DHT22;9652;49.014;12.052;2023-02-01T06:01:55;9.00;65.90
19039;DHT22;9652;49.014;12.052;2023-02-01T06:04:22;9.00;66.00
19039;DHT22;9652;49.014;12.052;2023-02-01T06:06:51;9.00;65.90
19039;DHT22;9652;49.014;12.052;2023-02-01T06:09:18;9.00;66.10
19039;DHT22;9652;49.014;12.052;2023-02-01T06:11:45;9.00;66.10
19039;DHT22;9652;49.014;12.052;2023-02-01T06:14:12;8.90;66.10
19039;DHT22;9652;49.014;12.052;2023-02-01T06:16:39;8.90;66.30
19039;DHT22;9652;49.014;12.052;2023-02-01T06:19:06;8.90;66.60
19039;DHT22;9652;49.014;12.052;2023-02-01T06:21:35;8.80;66.50
19039;DHT22;9652;49.014;12.052;2023-02-01T06:24:04;8.80;66.60
19039;DHT22;9652;49.014;12.052;2023-02-01T06:26:32;8.80;66.60
19039;DHT22;9652;49.014;12.052;2023-02-01T06:28:59;8.80;66.60
19039;DHT22;9652;49.014;12.052;2023-02-01T06:31:26;8.70;66.70
19039;DHT22;9652;49.014;12.052;2023-02-01T06:33:53;8.70;66.70
19039;DHT22;9652;49.014;12.052;2023-02-01T06:36:20;8.70;66.70
19039;DHT22;9652;49.014;12.052;2023-02-01T06:38:48;8.70;66.90
19039;DHT22;9652;49.014;12.052;2023-02-01T06:41:16;8.70;66.90
19039;DHT22;9652;49.014;12.052;2023-02-01T06:43:46;8.60;66.90
19039;DHT22;9652;49.014;12.052;2023-02-01T06:46:13;8.60;66.90
19039;DHT22;9652;49.014;12.052;2023-02-01T06:48:40;8.60;66.90
19039;DHT22;9652;49.014;12.052;2023-02-01T06:51:18;8.60;67.00
19039;DHT22;9652;49.014;12.052;2023-02-01T06:53:47;8.60;67.10
19039;DHT22;9652;49.014;12.052;2023-02-01T06:56:15;8.60;66.90
19039;DHT22;9652;49.014;12.052;2023-02-01T06:58:43;8.50;67.10
19039;DHT22;9652;49.014;12.052;2023-02-01T07:01:11;8.50;67.20
19039;DHT22;9652;49.014;12.052;2023-02-01T07:03:39;8.50;67.60
19039;DHT22;9652;49.014;12.052;2023-02-01T07:06:07;8.50;67.80
19039;DHT22;9652;49.014;12.052;2023-02-01T07:08:37;8.60;68.30
19039;DHT22;9652;49.014;12.052;2023-02-01T07:11:06;8.40;68.40
19039;DHT22;9652;49.014;12.052;2023-02-01T07:13:36;8.40;68.50
19039;DHT22;9652;49.014;12.052;2023-02-01T07:16:05;8.40;68.80
19039;DHT22;9652;49.014;12.052;2023-02-01T07:18:33;8.40;68.90
19039;DHT22;9652;49.014;12.052;2023-02-01T07:21:00;8.40;68.90
19039;DHT22;9652;49.014;12.052;2023-02-01T07:23:28;8.40;69.20
19039;DHT22;9652;49.014;12.052;2023-02-01T07:25:55;8.40;69.30
19039;DHT22;9652;49.014;12.052;2023-02-01T07:28:24;8.30;69.20
19039;DHT22;9652;49.014;12.052;2023-02-01T07:30:52;8.30;69.10
19039;DHT22;9652;49.014;12.052;2023-02-01T07:33:21;8.30;69.40
19039;DHT22;9652;49.014;12.052;2023-02-01T07:35:50;8.30;69.70
19039;DHT22;9652;49.014;12.052;2023-02-01T07:38:18;8.30;70.30
19039;DHT22;9652;49.014;12.052;2023-02-01T07:40:47;8.30;70.80
19039;DHT22;9652;49.014;12.052;2023-02-01T07:43:14;8.30;71.30
19039;DHT22;9652;49.014;12.052;2023-02-01T07:45:41;8.30;72.00
19039;DHT22;9652;49.014;12.052;2023-02-01T07:48:09;8.20;72.50
19039;DHT22;9652;49.014;12.052;2023-02-01T07:50:36;8.20;72.80
19039;DHT22;9652;49.014;12.052;2023-02-01T07:53:03;8.20;73.20
19039;DHT22;9652;49.014;12.052;2023-02-01T07:55:30;8.20;73.70
19039;DHT22;9652;49.014;12.052;2023-02-01T07:57:58;8.10;74.00
19039;DHT22;9652;49.014;12.052;2023-02-01T08:00:26;8.10;74.40
19039;DHT22;9652;49.014;12.052;2023-02-01T08:03:12;8.10;74.50
19039;DHT22;9652;49.014;12.052;2023-02-01T08:05:39;8.10;74.80
19039;DHT22;9652;49.014;12.052;2023-02-01T08:08:06;8.10;75.10
19039;DHT22;9652;49.014;12.052;2023-02-01T08:10:34;8.10;75.40
19039;DHT22;9652;49.014;12.052;2023-02-01T08:13:01;8.10;75.50
19039;DHT22;9652;49.014;12.052;2023-02-01T08:15:29;8.10;75.70
19039;DHT22;9652;49.014;12.052;2023-02-01T08:17:57;8.00;75.70
19039;DHT22;9652;49.014;12.052;2023-02-01T08:20:26;8.10;75.90
19039;DHT22;9652;49.014;12.052;2023-02-01T08:22:54;8.10;76.10
19039;DHT22;9652;49.014;12.052;2023-02-01T08:25:22;8.10;76.20
19039;DHT22;9652;49.014;12.052;2023-02-01T08:27:50;8.10;76.40
19039;DHT22;9652;49.014;12.052;2023-02-01T08:30:19;8.10;76.60
19039;DHT22;9652;49.014;12.052;2023-02-01T08:32:47;8.10;76.70
19039;DHT22;9652;49.014;12.052;2023-02-01T08:35:14;8.10;77.70
19039;DHT22;9652;49.014;12.052;2023-02-01T08:37:43;8.10;77.00
19039;DHT22;9652;49.014;12.052;2023-02-01T08:40:10;8.20;77.20
19039;DHT22;9652;49.014;12.052;2023-02-01T08:42:39;8.20;77.30
19039;DHT22;9652;49.014;12.052;2023-02-01T08:45:23;8.20;77.40
19039;DHT22;9652;49.014;12.052;2023-02-01T08:47:52;8.30;77.60
19039;DHT22;9652;49.014;12.052;2023-02-01T08:50:20;8.20;77.50
19039;DHT22;9652;49.014;12.052;2023-02-01T08:52:50;8.30;77.60
19039;DHT22;9652;49.014;12.052;2023-02-01T08:55:18;8.30;77.70
19039;DHT22;9652;49.014;12.052;2023-02-01T08:57:45;8.40;77.80
19039;DHT22;9652;49.014;12.052;2023-02-01T09:00:16;8.40;77.90
19039;DHT22;9652;49.014;12.052;2023-02-01T09:02:44;8.40;78.00
19039;DHT22;9652;49.014;12.052;2023-02-01T09:05:11;8.40;77.80
19039;DHT22;9652;49.014;12.052;2023-02-01T09:07:39;8.40;77.40
19039;DHT22;9652;49.014;12.052;2023-02-01T09:10:09;8.50;77.10
19039;DHT22;9652;49.014;12.052;2023-02-01T09:12:37;8.40;77.20
19039;DHT22;9652;49.014;12.052;2023-02-01T09:15:05;8.40;77.30
19039;DHT22;9652;49.014;12.052;2023-02-01T09:17:34;8.40;77.40
19039;DHT22;9652;49.014;12.052;2023-02-01T09:20:01;8.40;78.00
19039;DHT22;9652;49.014;12.052;2023-02-01T09:22:29;8.40;78.40
19039;DHT22;9652;49.014;12.052;2023-02-01T09:24:56;8.50;78.60
19039;DHT22;9652;49.014;12.052;2023-02-01T09:27:25;8.50;78.90
19039;DHT22;9652;49.014;12.052;2023-02-01T09:29:52;8.60;78.80
19039;DHT22;9652;49.014;12.052;2023-02-01T09:32:19;8.60;78.70
19039;DHT22;9652;49.014;12.052;2023-02-01T09:34:46;8.70;78.60
19039;DHT22;9652;49.014;12.052;2023-02-01T09:37:14;8.70;78.60
19039;DHT22;9652;49.014;12.052;2023-02-01T09:39:41;8.80;78.70
19039;DHT22;9652;49.014;12.052;2023-02-01T09:42:21;8.80;78.80
19039;DHT22;9652;49.014;12.052;2023-02-01T09:45:14;8.80;78.90
19039;DHT22;9652;49.014;12.052;2023-02-01T09:47:50;8.90;78.60
19039;DHT22;9652;49.014;12.052;2023-02-01T09:50:27;8.90;78.10
19039;DHT22;9652;49.014;12.052;2023-02-01T09:53:00;8.90;78.00
19039;DHT22;9652;49.014;12.052;2023-02-01T09:55:36;8.90;78.00
19039;DHT22;9652;49.014;12.052;2023-02-01T09:58:12;8.90;77.90
19039;DHT22;9652;49.014;12.052;2023-02-01T10:00:52;8.90;77.90
19039;DHT22;9652;49.014;12.052;2023-02-01T10:03:21;8.90;77.80
19039;DHT22;9652;49.014;12.052;2023-02-01T10:06:09;8.90;77.90
19039;DHT22;9652;49.014;12.052;2023-02-01T10:09:01;8.90;78.20
19039;DHT22;9652;49.014;12.052;2023-02-01T10:11:45;8.90;78.00
19039;DHT22;9652;49.014;12.052;2023-02-01T10:14:50;8.90;77.90
19039;DHT22;9652;49.014;12.052;2023-02-01T10:17:31;8.90;77.70
19039;DHT22;9652;49.014;12.052;2023-02-01T10:20:18;8.90;77.30
19039;DHT22;9652;49.014;12.052;2023-02-01T10:23:01;8.80;77.30
19039;DHT22;9652;49.014;12.052;2023-02-01T10:25:44;8.80;77.60
19039;DHT22;9652;49.014;12.052;2023-02-01T10:28:21;8.80;77.80
19039;DHT22;9652;49.014;12.052;2023-02-01T10:30:56;8.80;78.10
19039;DHT22;9652;49.014;12.052;2023-02-01T10:33:26;8.80;78.10
19039;DHT22;9652;49.014;12.052;2023-02-01T10:36:01;8.80;77.90
19039;DHT22;9652;49.014;12.052;2023-02-01T10:38:37;8.80;77.80
19039;DHT22;9652;49.014;12.052;2023-02-01T10:41:10;8.90;77.80
19039;DHT22;9652;49.014;12.052;2023-02-01T10:43:40;8.90;77.80
19039;DHT22;9652;49.014;12.052;2023-02-01T10:46:09;8.90;77.70
19039;DHT22;9652;49.014;12.052;2023-02-01T10:48:37;8.90;77.70
19039;DHT22;9652;49.014;12.052;2023-02-01T10:51:10;8.90;77.50
19039;DHT22;9652;49.014;12.052;2023-02-01T10:53:46;9.00;77.60
19039;DHT22;9652;49.014;12.052;2023-02-01T10:56:22;9.00;77.50
19039;DHT22;9652;49.014;12.052;2023-02-01T10:58:51;9.00;77.20
19039;DHT22;9652;49.014;12.052;2023-02-01T11:01:33;9.10;76.60
19039;DHT22;9652;49.014;12.052;2023-02-01T11:04:05;9.10;76.40
19039;DHT22;9652;49.014;12.052;2023-02-01T11:06:37;9.10;75.80
19039;DHT22;9652;49.014;12.052;2023-02-01T11:09:11;9.10;75.50
19039;DHT22;9652;49.014;12.052;2023-02-01T11:11:59;9.10;75.50
19039;DHT22;9652;49.014;12.052;2023-02-01T11:14:35;9.10;75.60
19039;DHT22;9652;49.014;12.052;2023-02-01T11:17:21;9.10;75.50
19039;DHT22;9652;49.014;12.052;2023-02-01T11:19:58;9.10;75.40
19039;DHT22;9652;49.014;12.052;2023-02-01T11:22:26;9.10;75.10
19039;DHT22;9652;49.014;12.052;2023-02-01T11:24:55;9.10;74.80
19039;DHT22;9652;49.014;12.052;2023-02-01T11:27:24;9.20;75.40
19039;DHT22;9652;49.014;12.052;2023-02-01T11:29:55;9.20;74.30
19039;DHT22;9652;49.014;12.052;2023-02-01T11:32:28;9.30;74.10
19039;DHT22;9652;49.014;12.052;2023-02-01T11:34:57;9.30;74.20
19039;DHT22;9652;49.014;12.052;2023-02-01T11:37:30;9.40;72.20
19039;DHT22;9652;49.014;12.052;2023-02-01T11:40:04;9.40;72.00
19039;DHT22;9652;49.014;12.052;2023-02-01T11:42:54;9.50;72.40
19039;DHT22;9652;49.014;12.052;2023-02-01T11:45:26;9.60;72.10
19039;DHT22;9652;49.014;12.052;2023-02-01T11:47:57;9.60;71.90
19039;DHT22;9652;49.014;12.052;2023-02-01T11:50:32;9.70;72.00
19039;DHT22;9652;49.014;12.052;2023-02-01T11:53:17;9.70;71.90
19039;DHT22;9652;49.014;12.052;2023-02-01T11:56:02;9.80;71.50
19039;DHT22;9652;49.014;12.052;2023-02-01T11:58:53;10.00;70.70
19039;DHT22;9652;49.014;12.052;2023-02-01T12:01:47;10.00;69.80
19039;DHT22;9652;49.014;12.052;2023-02-01T12:04:50;10.00;69.90
19039;DHT22;9652;49.014;12.052;2023-02-01T12:07:34;10.10;69.50
19039;DHT22;9652;49.014;12.052;2023-02-01T12:10:25;10.10;69.90
19039;DHT22;9652;49.014;12.052;2023-02-01T12:13:07;10.20;69.40
19039;DHT22;9652;49.014;12.052;2023-02-01T12:15:54;10.30;68.90
19039;DHT22;9652;49.014;12.052;2023-02-01T12:18:59;10.30;69.20
19039;DHT22;9652;49.014;12.052;2023-02-01T12:22:03;10.50;68.50
19039;DHT22;9652;49.014;12.052;2023-02-01T12:24:58;10.60;68.60
19039;DHT22;9652;49.014;12.052;2023-02-01T12:28:02;10.60;68.20
19039;DHT22;9652;49.014;12.052;2023-02-01T12:31:07;10.70;67.70
19039;DHT22;9652;49.014;12.052;2023-02-01T12:34:03;10.80;67.30
19039;DHT22;9652;49.014;12.052;2023-02-01T12:36:49;10.90;66.70
19039;DHT22;9652;49.014;12.052;2023-02-01T12:39:29;10.80;66.60
19039;DHT22;9652;49.014;12.052;2023-02-01T12:42:01;10.80;66.60
19039;DHT22;9652;49.014;12.052;2023-02-01T12:44:43;10.80;67.00
19039;DHT22;9652;49.014;12.052;2023-02-01T12:47:20;10.80;67.00
19039;DHT22;9652;49.014;12.052;2023-02-01T12:49:55;10.80;67.20
19039;DHT22;9652;49.014;12.052;2023-02-01T12:52:32;10.80;67.50
19039;DHT22;9652;49.014;12.052;2023-02-01T12:55:16;10.80;67.50
19039;DHT22;9652;49.014;12.052;2023-02-01T12:57:51;10.80;67.10
19039;DHT22;9652;49.014;12.052;2023-02-01T13:00:27;10.80;67.30
19039;DHT22;9652;49.014;12.052;2023-02-01T13:03:03;10.80;67.30
19039;DHT22;9652;49.014;12.052;2023-02-01T13:05:46;10.80;67.10
19039;DHT22;9652;49.014;12.052;2023-02-01T13:08:28;10.70;66.90
19039;DHT22;9652;49.014;12.052;2023-02-01T13:11:04;10.70;67.00
19039;DHT22;9652;49.014;12.052;2023-02-01T13:13:46;10.60;67.20
19039;DHT22;9652;49.014;12.052;2023-02-01T13:16:24;10.40;67.30
19039;DHT22;9652;49.014;12.052;2023-02-01T13:19:08;10.30;67.30
19039;DHT22;9652;49.014;12.052;2023-02-01T13:21:43;10.30;67.60
19039;DHT22;9652;49.014;12.052;2023-02-01T13:24:24;10.20;67.80
19039;DHT22;9652;49.014;12.052;2023-02-01T13:26:59;10.10;67.90
19039;DHT22;9652;49.014;12.052;2023-02-01T13:29:28;10.10;68.00
19039;DHT22;9652;49.014;12.052;2023-02-01T13:32:29;10.00;68.10
19039;DHT22;9652;49.014;12.052;2023-02-01T13:35:29;10.00;67.70
19039;DHT22;9652;49.014;12.052;2023-02-01T13:38:31;10.00;67.90
19039;DHT22;9652;49.014;12.052;2023-02-01T13:41:28;9.90;67.50
19039;DHT22;9652;49.014;12.052;2023-02-01T13:44:04;9.90;67.80
19039;DHT22;9652;49.014;12.052;2023-02-01T13:46:40;9.90;67.90
19039;DHT22;9652;49.014;12.052;2023-02-01T13:49:18;9.90;67.90
19039;DHT22;9652;49.014;12.052;2023-02-01T13:51:49;9.90;67.80
19039;DHT22;9652;49.014;12.052;2023-02-01T13:54:28;9.90;67.90
19039;DHT22;9652;49.014;12.052;2023-02-01T13:56:58;9.90;67.60
19039;DHT22;9652;49.014;12.052;2023-02-01T13:59:49;10.00;68.60
19039;DHT22;9652;49.014;12.052;2023-02-01T14:02:45;10.00;67.10
19039;DHT22;9652;49.014;12.052;2023-02-01T14:05:59;10.00;67.00
19039;DHT22;9652;49.014;12.052;2023-02-01T14:08:42;10.00;66.40
19039;DHT22;9652;49.014;12.052;2023-02-01T14:11:37;10.00;66.70
19039;DHT22;9652;49.014;12.052;2023-02-01T14:17:31;10.00;65.90
19039;DHT22;9652;49.014;12.052;2023-02-01T14:23:29;10.00;65.90
19039;DHT22;9652;49.014;12.052;2023-02-01T14:26:12;10.00;66.00
19039;DHT22;9652;49.014;12.052;2023-02-01T14:29:00;10.10;66.10
19039;DHT22;9652;49.014;12.052;2023-02-01T14:31:58;10.00;65.90
19039;DHT22;9652;49.014;12.052;2023-02-01T14:34:39;10.00;65.50
19039;DHT22;9652;49.014;12.052;2023-02-01T14:37:24;10.00;66.00
19039;DHT22;9652;49.014;12.052;2023-02-01T14:39:57;10.00;66.10
19039;DHT22;9652;49.014;12.052;2023-02-01T14:42:29;9.90;66.10
19039;DHT22;9652;49.014;12.052;2023-02-01T14:48:45;9.90;65.60
19039;DHT22;9652;49.014;12.052;2023-02-01T14:51:15;9.90;65.50
19039;DHT22;9652;49.014;12.052;2023-02-01T14:53:44;9.90;65.90
19039;DHT22;9652;49.014;12.052;2023-02-01T14:56:15;9.80;65.70
19039;DHT22;9652;49.014;12.052;2023-02-01T14:58:52;9.80;65.30
19039;DHT22;9652;49.014;12.052;2023-02-01T15:01:25;9.80;65.30
19039;DHT22;9652;49.014;12.052;2023-02-01T15:04:00;9.70;65.50
19039;DHT22;9652;49.014;12.052;2023-02-01T15:06:36;9.70;65.40
19039;DHT22;9652;49.014;12.052;2023-02-01T15:09:09;9.70;66.10
19039;DHT22;9652;49.014;12.052;2023-02-01T15:12:00;9.70;65.30
19039;DHT22;9652;49.014;12.052;2023-02-01T15:14:30;9.70;65.00
19039;DHT22;9652;49.014;12.052;2023-02-01T15:16:58;9.70;65.10
19039;DHT22;9652;49.014;12.052;2023-02-01T15:19:29;9.70;64.90
19039;DHT22;9652;49.014;12.052;2023-02-01T15:21:59;9.70;65.00
19039;DHT22;9652;49.014;12.052;2023-02-01T15:24:28;9.70;64.90
19039;DHT22;9652;49.014;12.052;2023-02-01T15:27:02;9.60;64.70
19039;DHT22;9652;49.014;12.052;2023-02-01T15:29:31;9.60;64.60
19039;DHT22;9652;49.014;12.052;2023-02-01T15:31:59;9.60;64.70
19039;DHT22;9652;49.014;12.052;2023-02-01T15:34:45;9.60;64.60
19039;DHT22;9652;49.014;12.052;2023-02-01T15:37:14;9.60;64.20
19039;DHT22;9652;49.014;12.052;2023-02-01T15:40:14;9.60;64.50
19039;DHT22;9652;49.014;12.052;2023-02-01T15:42:51;9.60;64.30
19039;DHT22;9652;49.014;12.052;2023-02-01T15:45:22;9.50;64.40
19039;DHT22;9652;49.014;12.052;2023-02-01T15:47:54;9.50;64.40
19039;DHT22;9652;49.014;12.052;2023-02-01T15:50:24;9.50;64.50
19039;DHT22;9652;49.014;12.052;2023-02-01T15:52:54;9.50;64.50
19039;DHT22;9652;49.014;12.052;2023-02-01T15:55:24;9.50;64.60
19039;DHT22;9652;49.014;12.052;2023-02-01T15:58:05;9.50;64.40
19039;DHT22;9652;49.014;12.052;2023-02-01T16:00:42;9.50;64.40
19039;DHT22;9652;49.014;12.052;2023-02-01T16:03:33;9.50;64.10
19039;DHT22;9652;49.014;12.052;2023-02-01T16:06:06;9.50;64.10
19039;DHT22;9652;49.014;12.052;2023-02-01T16:08:35;9.50;64.40
19039;DHT22;9652;49.014;12.052;2023-02-01T16:11:22;9.40;64.30
19039;DHT22;9652;49.014;12.052;2023-02-01T16:13:53;9.40;64.10
19039;DHT22;9652;49.014;12.052;2023-02-01T16:16:21;9.40;64.10
19039;DHT22;9652;49.014;12.052;2023-02-01T16:18:48;9.40;63.80
19039;DHT22;9652;49.014;12.052;2023-02-01T16:21:16;9.40;63.80
19039;DHT22;9652;49.014;12.052;2023-02-01T16:23:43;9.40;63.90
19039;DHT22;9652;49.014;12.052;2023-02-01T16:26:15;9.40;64.10
19039;DHT22;9652;49.014;12.052;2023-02-01T16:28:42;9.40;63.80
19039;DHT22;9652;49.014;12.052;2023-02-01T16:31:12;9.40;63.60
19039;DHT22;9652;49.014;12.052;2023-02-01T16:33:46;9.40;63.60
19039;DHT22;9652;49.014;12.052;2023-02-01T16:36:13;9.40;63.80
19039;DHT22;9652;49.014;12.052;2023-02-01T16:38:42;9.40;63.90